sensor_id;sensor_type;location;lat;lon;timestamp;P1;durP1;ratioP1;P2;durP2;ratioP2
37645;SDS011;23489;49.600;6.138;2023-01-20T00:01:30;19.77;;;10.73;;
37645;SDS011;23489;49.600;6.138;2023-01-20T00:03:56;22.10;;;10.75;;
37645;SDS011;23489;49.600;6.138;2023-01-20T00:06:23;15.63;;;9.75;;
37645;SDS011;23489;49.600;6.138;2023-01-20T00:08:52;16.60;;;9.90;;
37645;SDS011;23489;49.600;6.138;2023-01-20T00:11:18;17.97;;;9.93;;
37645;SDS011;23489;49.600;6.138;2023-01-20T00:13:45;16.03;;;10.17;;
37645;SDS011;23489;49.600;6.138;2023-01-20T00:16:11;21.73;;;10.90;;
37645;SDS011;23489;49.600;6.138;2023-01-20T00:18:37;19.33;;;10.83;;
37645;SDS011;23489;49.600;6.138;2023-01-20T00:21:07;21.10;;;10.73;;
37645;SDS011;23489;49.600;6.138;2023-01-20T00:23:35;19.67;;;10.73;;
37645;SDS011;23489;49.600;6.138;2023-01-20T00:26:08;15.47;;;10.00;;
37645;SDS011;23489;49.600;6.138;2023-01-20T00:28:38;19.40;;;11.17;;
37645;SDS011;23489;49.600;6.138;2023-01-20T00:31:11;15.93;;;10.37;;
37645;SDS011;23489;49.600;6.138;2023-01-20T00:33:45;17.60;;;10.00;;
37645;SDS011;23489;49.600;6.138;2023-01-20T00:36:12;17.93;;;10.87;;
37645;SDS011;23489;49.600;6.138;2023-01-20T00:38:39;20.50;;;11.13;;
37645;SDS011;23489;49.600;6.138;2023-01-20T00:41:05;17.90;;;10.43;;
37645;SDS011;23489;49.600;6.138;2023-01-20T00:43:31;21.33;;;10.53;;
37645;SDS011;23489;49.600;6.138;2023-01-20T00:45:57;20.83;;;11.13;;
37645;SDS011;23489;49.600;6.138;2023-01-20T00:48:23;17.63;;;10.33;;
37645;SDS011;23489;49.600;6.138;2023-01-20T00:50:48;22.47;;;10.30;;
37645;SDS011;23489;49.600;6.138;2023-01-20T00:53:14;24.67;;;11.23;;
37645;SDS011;23489;49.600;6.138;2023-01-20T00:55:40;22.53;;;10.97;;
37645;SDS011;23489;49.600;6.138;2023-01-20T00:58:06;20.50;;;11.33;;
37645;SDS011;23489;49.600;6.138;2023-01-20T01:00:31;19.17;;;10.50;;
37645;SDS011;23489;49.600;6.138;2023-01-20T01:02:57;24.10;;;11.50;;
37645;SDS011;23489;49.600;6.138;2023-01-20T01:05:23;21.40;;;11.03;;
37645;SDS011;23489;49.600;6.138;2023-01-20T01:07:48;23.47;;;11.60;;
37645;SDS011;23489;49.600;6.138;2023-01-20T01:10:14;19.40;;;10.70;;
37645;SDS011;23489;49.600;6.138;2023-01-20T01:12:40;20.27;;;11.83;;
37645;SDS011;23489;49.600;6.138;2023-01-20T01:15:05;17.67;;;11.17;;
37645;SDS011;23489;49.600;6.138;2023-01-20T01:17:31;21.93;;;10.83;;
37645;SDS011;23489;49.600;6.138;2023-01-20T01:19:57;21.63;;;11.73;;
37645;SDS011;23489;49.600;6.138;2023-01-20T01:22:22;22.47;;;11.57;;
37645;SDS011;23489;49.600;6.138;2023-01-20T01:24:48;21.47;;;11.70;;
37645;SDS011;23489;49.600;6.138;2023-01-20T01:27:14;18.93;;;11.20;;
37645;SDS011;23489;49.600;6.138;2023-01-20T01:29:39;20.37;;;11.83;;
37645;SDS011;23489;49.600;6.138;2023-01-20T01:32:05;22.90;;;12.07;;
37645;SDS011;23489;49.600;6.138;2023-01-20T01:34:31;21.23;;;11.57;;
37645;SDS011;23489;49.600;6.138;2023-01-20T01:36:57;20.17;;;10.97;;
37645;SDS011;23489;49.600;6.138;2023-01-20T01:39:23;19.50;;;11.33;;
37645;SDS011;23489;49.600;6.138;2023-01-20T01:41:49;19.17;;;10.27;;
37645;SDS011;23489;49.600;6.138;2023-01-20T01:44:15;19.47;;;11.97;;
37645;SDS011;23489;49.600;6.138;2023-01-20T01:46:41;22.50;;;11.07;;
37645;SDS011;23489;49.600;6.138;2023-01-20T01:49:09;23.27;;;11.17;;
37645;SDS011;23489;49.600;6.138;2023-01-20T01:51:45;19.03;;;10.83;;
37645;SDS011;23489;49.600;6.138;2023-01-20T01:54:16;18.97;;;11.27;;
37645;SDS011;23489;49.600;6.138;2023-01-20T01:56:44;23.83;;;13.80;;
37645;SDS011;23489;49.600;6.138;2023-01-20T01:59:12;24.97;;;12.63;;
37645;SDS011;23489;49.600;6.138;2023-01-20T02:01:40;25.47;;;13.83;;
37645;SDS011;23489;49.600;6.138;2023-01-20T02:04:12;22.50;;;12.40;;
37645;SDS011;23489;49.600;6.138;2023-01-20T02:06:41;27.23;;;13.23;;
37645;SDS011;23489;49.600;6.138;2023-01-20T02:09:12;21.97;;;12.67;;
37645;SDS011;23489;49.600;6.138;2023-01-20T02:11:39;22.40;;;12.80;;
37645;SDS011;23489;49.600;6.138;2023-01-20T02:14:12;26.00;;;12.17;;
37645;SDS011;23489;49.600;6.138;2023-01-20T02:19:41;19.80;;;11.60;;
37645;SDS011;23489;49.600;6.138;2023-01-20T02:25:28;18.57;;;10.40;;
37645;SDS011;23489;49.600;6.138;2023-01-20T02:33:59;21.50;;;14.73;;
37645;SDS011;23489;49.600;6.138;2023-01-20T02:36:28;17.97;;;11.53;;
37645;SDS011;23489;49.600;6.138;2023-01-20T02:41:51;17.37;;;10.70;;
37645;SDS011;23489;49.600;6.138;2023-01-20T02:44:35;17.40;;;10.60;;
37645;SDS011;23489;49.600;6.138;2023-01-20T02:47:08;17.30;;;10.73;;
37645;SDS011;23489;49.600;6.138;2023-01-20T02:52:18;19.00;;;10.20;;
37645;SDS011;23489;49.600;6.138;2023-01-20T02:54:51;20.27;;;10.97;;
37645;SDS011;23489;49.600;6.138;2023-01-20T02:57:21;20.00;;;12.53;;
37645;SDS011;23489;49.600;6.138;2023-01-20T02:59:52;22.83;;;11.07;;
37645;SDS011;23489;49.600;6.138;2023-01-20T03:02:22;21.13;;;12.00;;
37645;SDS011;23489;49.600;6.138;2023-01-20T03:04:51;22.33;;;11.57;;
37645;SDS011;23489;49.600;6.138;2023-01-20T03:07:24;20.63;;;11.63;;
37645;SDS011;23489;49.600;6.138;2023-01-20T03:09:53;20.60;;;11.47;;
37645;SDS011;23489;49.600;6.138;2023-01-20T03:12:30;18.77;;;11.10;;
37645;SDS011;23489;49.600;6.138;2023-01-20T03:15:00;19.77;;;11.60;;
37645;SDS011;23489;49.600;6.138;2023-01-20T03:17:27;23.10;;;11.40;;
37645;SDS011;23489;49.600;6.138;2023-01-20T03:19:52;21.13;;;11.13;;
37645;SDS011;23489;49.600;6.138;2023-01-20T03:22:18;17.00;;;10.13;;
37645;SDS011;23489;49.600;6.138;2023-01-20T03:24:44;20.43;;;11.63;;
37645;SDS011;23489;49.600;6.138;2023-01-20T03:27:11;21.53;;;12.30;;
37645;SDS011;23489;49.600;6.138;2023-01-20T03:29:37;26.70;;;12.30;;
37645;SDS011;23489;49.600;6.138;2023-01-20T03:32:03;22.60;;;11.77;;
37645;SDS011;23489;49.600;6.138;2023-01-20T03:34:33;22.93;;;13.00;;
37645;SDS011;23489;49.600;6.138;2023-01-20T03:37:01;20.67;;;12.37;;
37645;SDS011;23489;49.600;6.138;2023-01-20T03:39:28;19.83;;;11.77;;
37645;SDS011;23489;49.600;6.138;2023-01-20T03:42:00;23.77;;;12.70;;
37645;SDS011;23489;49.600;6.138;2023-01-20T03:44:41;20.67;;;11.50;;
37645;SDS011;23489;49.600;6.138;2023-01-20T03:47:47;21.17;;;11.17;;
37645;SDS011;23489;49.600;6.138;2023-01-20T03:53:35;22.57;;;12.10;;
37645;SDS011;23489;49.600;6.138;2023-01-20T03:56:16;21.83;;;11.73;;
37645;SDS011;23489;49.600;6.138;2023-01-20T03:58:47;23.80;;;11.63;;
37645;SDS011;23489;49.600;6.138;2023-01-20T04:01:16;21.87;;;11.70;;
37645;SDS011;23489;49.600;6.138;2023-01-20T04:03:46;20.93;;;11.70;;
37645;SDS011;23489;49.600;6.138;2023-01-20T04:06:14;22.20;;;11.87;;
37645;SDS011;23489;49.600;6.138;2023-01-20T04:08:46;20.57;;;11.60;;
37645;SDS011;23489;49.600;6.138;2023-01-20T04:11:16;19.97;;;11.50;;
37645;SDS011;23489;49.600;6.138;2023-01-20T04:13:42;20.70;;;12.00;;
37645;SDS011;23489;49.600;6.138;2023-01-20T04:16:09;24.70;;;11.87;;
37645;SDS011;23489;49.600;6.138;2023-01-20T04:18:40;20.97;;;10.93;;
37645;SDS011;23489;49.600;6.138;2023-01-20T04:21:07;23.17;;;12.37;;
37645;SDS011;23489;49.600;6.138;2023-01-20T04:23:38;31.30;;;13.03;;
37645;SDS011;23489;49.600;6.138;2023-01-20T04:26:10;26.07;;;13.13;;
37645;SDS011;23489;49.600;6.138;2023-01-20T04:28:36;23.17;;;11.57;;
37645;SDS011;23489;49.600;6.138;2023-01-20T04:31:01;21.10;;;11.43;;
37645;SDS011;23489;49.600;6.138;2023-01-20T04:33:27;21.23;;;11.90;;
37645;SDS011;23489;49.600;6.138;2023-01-20T04:35:53;24.83;;;12.67;;
37645;SDS011;23489;49.600;6.138;2023-01-20T04:38:18;27.40;;;12.60;;
37645;SDS011;23489;49.600;6.138;2023-01-20T04:40:44;24.70;;;12.50;;
37645;SDS011;23489;49.600;6.138;2023-01-20T04:43:10;29.53;;;12.63;;
37645;SDS011;23489;49.600;6.138;2023-01-20T04:45:36;27.43;;;12.43;;
37645;SDS011;23489;49.600;6.138;2023-01-20T04:48:05;25.73;;;12.80;;
37645;SDS011;23489;49.600;6.138;2023-01-20T04:50:32;23.37;;;12.17;;
37645;SDS011;23489;49.600;6.138;2023-01-20T04:52:58;25.23;;;12.57;;
37645;SDS011;23489;49.600;6.138;2023-01-20T04:55:23;31.07;;;12.80;;
37645;SDS011;23489;49.600;6.138;2023-01-20T04:57:50;23.13;;;12.83;;
37645;SDS011;23489;49.600;6.138;2023-01-20T05:00:16;23.27;;;12.47;;
37645;SDS011;23489;49.600;6.138;2023-01-20T05:02:44;21.77;;;10.07;;
37645;SDS011;23489;49.600;6.138;2023-01-20T05:05:10;18.10;;;10.03;;
37645;SDS011;23489;49.600;6.138;2023-01-20T05:07:36;20.33;;;11.23;;
37645;SDS011;23489;49.600;6.138;2023-01-20T05:10:02;23.77;;;11.93;;
37645;SDS011;23489;49.600;6.138;2023-01-20T05:12:28;21.70;;;10.57;;
37645;SDS011;23489;49.600;6.138;2023-01-20T05:14:53;23.70;;;11.80;;
37645;SDS011;23489;49.600;6.138;2023-01-20T05:17:19;19.17;;;10.60;;
37645;SDS011;23489;49.600;6.138;2023-01-20T05:19:44;20.97;;;10.63;;
37645;SDS011;23489;49.600;6.138;2023-01-20T05:22:10;24.67;;;12.27;;
37645;SDS011;23489;49.600;6.138;2023-01-20T05:24:36;23.67;;;11.47;;
37645;SDS011;23489;49.600;6.138;2023-01-20T05:27:01;25.47;;;11.30;;
37645;SDS011;23489;49.600;6.138;2023-01-20T05:29:27;22.70;;;11.20;;
37645;SDS011;23489;49.600;6.138;2023-01-20T05:31:53;24.33;;;11.80;;
37645;SDS011;23489;49.600;6.138;2023-01-20T05:34:19;20.90;;;10.80;;
37645;SDS011;23489;49.600;6.138;2023-01-20T05:36:45;18.80;;;9.60;;
37645;SDS011;23489;49.600;6.138;2023-01-20T05:39:10;19.30;;;9.33;;
37645;SDS011;23489;49.600;6.138;2023-01-20T05:41:36;20.43;;;10.73;;
37645;SDS011;23489;49.600;6.138;2023-01-20T05:44:02;17.07;;;9.30;;
37645;SDS011;23489;49.600;6.138;2023-01-20T05:46:27;17.67;;;9.57;;
37645;SDS011;23489;49.600;6.138;2023-01-20T05:48:53;18.23;;;9.97;;
37645;SDS011;23489;49.600;6.138;2023-01-20T05:51:18;16.57;;;9.10;;
37645;SDS011;23489;49.600;6.138;2023-01-20T05:53:44;16.47;;;9.37;;
37645;SDS011;23489;49.600;6.138;2023-01-20T05:56:10;19.07;;;10.10;;
37645;SDS011;23489;49.600;6.138;2023-01-20T05:58:40;14.83;;;9.13;;
37645;SDS011;23489;49.600;6.138;2023-01-20T06:01:09;16.57;;;9.13;;
37645;SDS011;23489;49.600;6.138;2023-01-20T06:03:36;18.60;;;9.70;;
37645;SDS011;23489;49.600;6.138;2023-01-20T06:06:03;16.47;;;9.83;;
37645;SDS011;23489;49.600;6.138;2023-01-20T06:08:30;18.47;;;9.70;;
37645;SDS011;23489;49.600;6.138;2023-01-20T06:10:57;17.43;;;10.10;;
37645;SDS011;23489;49.600;6.138;2023-01-20T06:13:22;20.83;;;10.83;;
37645;SDS011;23489;49.600;6.138;2023-01-20T06:15:51;20.53;;;10.50;;
37645;SDS011;23489;49.600;6.138;2023-01-20T06:18:18;17.93;;;9.97;;
37645;SDS011;23489;49.600;6.138;2023-01-20T06:20:44;17.50;;;9.77;;
37645;SDS011;23489;49.600;6.138;2023-01-20T06:23:10;21.40;;;11.00;;
37645;SDS011;23489;49.600;6.138;2023-01-20T06:25:36;15.97;;;9.30;;
37645;SDS011;23489;49.600;6.138;2023-01-20T06:28:02;17.83;;;9.40;;
37645;SDS011;23489;49.600;6.138;2023-01-20T06:30:28;19.37;;;9.63;;
37645;SDS011;23489;49.600;6.138;2023-01-20T06:32:53;17.00;;;9.80;;
37645;SDS011;23489;49.600;6.138;2023-01-20T06:35:21;16.17;;;9.87;;
37645;SDS011;23489;49.600;6.138;2023-01-20T06:37:47;20.40;;;10.07;;
37645;SDS011;23489;49.600;6.138;2023-01-20T06:40:13;17.83;;;10.07;;
37645;SDS011;23489;49.600;6.138;2023-01-20T06:42:40;18.10;;;10.10;;
37645;SDS011;23489;49.600;6.138;2023-01-20T06:45:06;18.47;;;9.67;;
37645;SDS011;23489;49.600;6.138;2023-01-20T06:47:32;15.83;;;9.60;;
37645;SDS011;23489;49.600;6.138;2023-01-20T06:49:58;20.57;;;11.03;;
37645;SDS011;23489;49.600;6.138;2023-01-20T06:52:23;24.97;;;10.80;;
37645;SDS011;23489;49.600;6.138;2023-01-20T06:54:49;22.23;;;9.77;;
37645;SDS011;23489;49.600;6.138;2023-01-20T06:57:15;17.83;;;9.57;;
37645;SDS011;23489;49.600;6.138;2023-01-20T06:59:40;18.23;;;8.80;;
37645;SDS011;23489;49.600;6.138;2023-01-20T07:02:07;16.87;;;9.87;;
37645;SDS011;23489;49.600;6.138;2023-01-20T07:04:35;16.73;;;8.93;;
37645;SDS011;23489;49.600;6.138;2023-01-20T07:07:01;23.67;;;8.87;;
37645;SDS011;23489;49.600;6.138;2023-01-20T07:09:27;20.70;;;9.50;;
37645;SDS011;23489;49.600;6.138;2023-01-20T07:11:53;18.03;;;8.70;;
37645;SDS011;23489;49.600;6.138;2023-01-20T07:14:18;18.70;;;10.00;;
37645;SDS011;23489;49.600;6.138;2023-01-20T07:16:44;17.70;;;9.27;;
37645;SDS011;23489;49.600;6.138;2023-01-20T07:19:10;14.63;;;8.87;;
37645;SDS011;23489;49.600;6.138;2023-01-20T07:21:36;20.43;;;9.97;;
37645;SDS011;23489;49.600;6.138;2023-01-20T07:24:02;15.17;;;9.30;;
37645;SDS011;23489;49.600;6.138;2023-01-20T07:26:28;16.90;;;9.53;;
37645;SDS011;23489;49.600;6.138;2023-01-20T07:28:54;17.77;;;9.63;;
37645;SDS011;23489;49.600;6.138;2023-01-20T07:31:22;16.70;;;9.93;;
37645;SDS011;23489;49.600;6.138;2023-01-20T07:33:49;21.57;;;9.77;;
37645;SDS011;23489;49.600;6.138;2023-01-20T07:36:16;19.57;;;10.70;;
37645;SDS011;23489;49.600;6.138;2023-01-20T07:38:42;18.03;;;9.10;;
37645;SDS011;23489;49.600;6.138;2023-01-20T07:41:11;17.10;;;8.83;;
37645;SDS011;23489;49.600;6.138;2023-01-20T07:43:40;18.93;;;11.10;;
37645;SDS011;23489;49.600;6.138;2023-01-20T07:46:07;31.47;;;16.90;;
37645;SDS011;23489;49.600;6.138;2023-01-20T07:48:32;36.57;;;22.37;;
37645;SDS011;23489;49.600;6.138;2023-01-20T07:50:59;53.73;;;31.97;;
37645;SDS011;23489;49.600;6.138;2023-01-20T07:53:29;29.07;;;16.90;;
37645;SDS011;23489;49.600;6.138;2023-01-20T07:56:03;26.17;;;14.40;;
37645;SDS011;23489;49.600;6.138;2023-01-20T07:58:30;27.17;;;15.53;;
37645;SDS011;23489;49.600;6.138;2023-01-20T08:00:56;39.27;;;22.60;;
37645;SDS011;23489;49.600;6.138;2023-01-20T08:03:22;32.57;;;17.83;;
37645;SDS011;23489;49.600;6.138;2023-01-20T08:05:48;22.77;;;15.13;;
37645;SDS011;23489;49.600;6.138;2023-01-20T08:08:13;21.45;;;11.15;;
37645;SDS011;23489;49.600;6.138;2023-01-20T08:10:39;20.27;;;11.03;;
37645;SDS011;23489;49.600;6.138;2023-01-20T08:13:04;28.00;;;15.47;;
37645;SDS011;23489;49.600;6.138;2023-01-20T08:15:30;45.90;;;30.47;;
37645;SDS011;23489;49.600;6.138;2023-01-20T08:17:56;30.00;;;19.40;;
37645;SDS011;23489;49.600;6.138;2023-01-20T08:20:23;26.60;;;15.23;;
37645;SDS011;23489;49.600;6.138;2023-01-20T08:22:49;24.30;;;13.13;;
37645;SDS011;23489;49.600;6.138;2023-01-20T08:25:14;19.43;;;12.03;;
37645;SDS011;23489;49.600;6.138;2023-01-20T08:27:40;20.60;;;11.33;;
37645;SDS011;23489;49.600;6.138;2023-01-20T08:30:06;20.43;;;10.93;;
37645;SDS011;23489;49.600;6.138;2023-01-20T08:32:32;15.63;;;9.73;;
37645;SDS011;23489;49.600;6.138;2023-01-20T08:34:58;19.50;;;11.37;;
37645;SDS011;23489;49.600;6.138;2023-01-20T08:37:23;18.43;;;12.20;;
37645;SDS011;23489;49.600;6.138;2023-01-20T08:39:49;30.33;;;16.60;;
37645;SDS011;23489;49.600;6.138;2023-01-20T08:42:14;22.40;;;11.93;;
37645;SDS011;23489;49.600;6.138;2023-01-20T08:44:40;34.73;;;23.53;;
37645;SDS011;23489;49.600;6.138;2023-01-20T08:47:06;27.90;;;17.33;;
37645;SDS011;23489;49.600;6.138;2023-01-20T08:49:31;36.37;;;24.93;;
37645;SDS011;23489;49.600;6.138;2023-01-20T08:51:57;42.17;;;29.97;;
37645;SDS011;23489;49.600;6.138;2023-01-20T08:54:23;39.80;;;26.77;;
37645;SDS011;23489;49.600;6.138;2023-01-20T08:56:49;37.83;;;31.07;;
37645;SDS011;23489;49.600;6.138;2023-01-20T08:59:18;31.67;;;19.00;;
37645;SDS011;23489;49.600;6.138;2023-01-20T09:01:44;20.63;;;13.55;;
37645;SDS011;23489;49.600;6.138;2023-01-20T09:04:10;35.53;;;18.40;;
37645;SDS011;23489;49.600;6.138;2023-01-20T09:06:37;37.07;;;24.63;;
37645;SDS011;23489;49.600;6.138;2023-01-20T09:09:03;35.77;;;21.40;;
37645;SDS011;23489;49.600;6.138;2023-01-20T09:11:29;32.97;;;20.17;;
37645;SDS011;23489;49.600;6.138;2023-01-20T09:13:54;54.80;;;29.40;;
37645;SDS011;23489;49.600;6.138;2023-01-20T09:16:21;41.50;;;26.47;;
37645;SDS011;23489;49.600;6.138;2023-01-20T09:18:47;30.52;;;20.58;;
37645;SDS011;23489;49.600;6.138;2023-01-20T09:21:14;43.87;;;31.73;;
37645;SDS011;23489;49.600;6.138;2023-01-20T09:23:39;33.87;;;21.73;;
37645;SDS011;23489;49.600;6.138;2023-01-20T09:26:06;23.77;;;13.87;;
37645;SDS011;23489;49.600;6.138;2023-01-20T09:28:33;30.43;;;21.97;;
37645;SDS011;23489;49.600;6.138;2023-01-20T09:31:00;32.20;;;20.73;;
37645;SDS011;23489;49.600;6.138;2023-01-20T09:33:30;26.90;;;17.00;;
37645;SDS011;23489;49.600;6.138;2023-01-20T09:35:57;38.00;;;24.33;;
37645;SDS011;23489;49.600;6.138;2023-01-20T09:38:24;30.17;;;19.80;;
37645;SDS011;23489;49.600;6.138;2023-01-20T09:41:24;24.95;;;16.90;;
37645;SDS011;23489;49.600;6.138;2023-01-20T09:44:16;17.13;;;10.20;;
37645;SDS011;23489;49.600;6.138;2023-01-20T09:47:14;16.70;;;8.97;;
37645;SDS011;23489;49.600;6.138;2023-01-20T09:49:57;19.60;;;10.80;;
37645;SDS011;23489;49.600;6.138;2023-01-20T09:52:44;23.00;;;14.43;;
37645;SDS011;23489;49.600;6.138;2023-01-20T09:55:31;17.65;;;9.48;;
37645;SDS011;23489;49.600;6.138;2023-01-20T10:01:11;25.90;;;12.20;;
37645;SDS011;23489;49.600;6.138;2023-01-20T10:04:50;15.48;;;9.13;;
37645;SDS011;23489;49.600;6.138;2023-01-20T10:07:07;19.95;;;9.68;;
37645;SDS011;23489;49.600;6.138;2023-01-20T10:09:41;13.13;;;8.80;;
37645;SDS011;23489;49.600;6.138;2023-01-20T10:12:17;15.82;;;9.23;;
37645;SDS011;23489;49.600;6.138;2023-01-20T10:15:05;14.38;;;7.97;;
37645;SDS011;23489;49.600;6.138;2023-01-20T10:17:45;14.07;;;7.55;;
37645;SDS011;23489;49.600;6.138;2023-01-20T10:23:29;9.90;;;7.32;;
37645;SDS011;23489;49.600;6.138;2023-01-20T10:26:16;17.80;;;12.63;;
37645;SDS011;23489;49.600;6.138;2023-01-20T10:28:51;12.02;;;7.13;;
37645;SDS011;23489;49.600;6.138;2023-01-20T10:31:26;10.18;;;7.57;;
37645;SDS011;23489;49.600;6.138;2023-01-20T10:33:55;11.48;;;6.57;;
37645;SDS011;23489;49.600;6.138;2023-01-20T10:36:26;13.40;;;7.13;;
37645;SDS011;23489;49.600;6.138;2023-01-20T10:41:34;11.10;;;7.88;;
37645;SDS011;23489;49.600;6.138;2023-01-20T10:44:11;10.27;;;7.47;;
37645;SDS011;23489;49.600;6.138;2023-01-20T10:46:48;13.48;;;7.97;;
37645;SDS011;23489;49.600;6.138;2023-01-20T10:49:34;19.65;;;11.77;;
37645;SDS011;23489;49.600;6.138;2023-01-20T10:57:56;18.77;;;12.88;;
37645;SDS011;23489;49.600;6.138;2023-01-20T11:00:30;15.20;;;10.20;;
37645;SDS011;23489;49.600;6.138;2023-01-20T11:02:57;13.85;;;8.77;;
37645;SDS011;23489;49.600;6.138;2023-01-20T11:05:25;15.60;;;8.40;;
37645;SDS011;23489;49.600;6.138;2023-01-20T11:07:54;13.40;;;7.53;;
37645;SDS011;23489;49.600;6.138;2023-01-20T11:10:23;13.40;;;8.15;;
37645;SDS011;23489;49.600;6.138;2023-01-20T11:12:52;15.43;;;7.93;;
37645;SDS011;23489;49.600;6.138;2023-01-20T11:15:34;13.60;;;8.23;;
37645;SDS011;23489;49.600;6.138;2023-01-20T11:20:59;15.63;;;9.30;;
37645;SDS011;23489;49.600;6.138;2023-01-20T11:26:16;12.18;;;7.85;;
37645;SDS011;23489;49.600;6.138;2023-01-20T11:29:24;13.05;;;7.63;;
37645;SDS011;23489;49.600;6.138;2023-01-20T11:31:54;16.17;;;8.27;;
37645;SDS011;23489;49.600;6.138;2023-01-20T11:34:41;18.30;;;8.45;;
37645;SDS011;23489;49.600;6.138;2023-01-20T11:37:19;14.75;;;8.32;;
37645;SDS011;23489;49.600;6.138;2023-01-20T11:42:25;17.00;;;9.45;;
37645;SDS011;23489;49.600;6.138;2023-01-20T11:45:19;15.70;;;8.93;;
37645;SDS011;23489;49.600;6.138;2023-01-20T11:47:57;16.10;;;8.85;;
37645;SDS011;23489;49.600;6.138;2023-01-20T11:50:34;13.77;;;8.40;;
37645;SDS011;23489;49.600;6.138;2023-01-20T11:53:18;14.93;;;7.53;;
37645;SDS011;23489;49.600;6.138;2023-01-20T11:55:49;12.38;;;7.40;;
37645;SDS011;23489;49.600;6.138;2023-01-20T11:58:48;12.60;;;8.40;;
37645;SDS011;23489;49.600;6.138;2023-01-20T12:01:19;12.70;;;8.73;;
37645;SDS011;23489;49.600;6.138;2023-01-20T12:06:45;12.63;;;8.32;;
37645;SDS011;23489;49.600;6.138;2023-01-20T12:09:17;16.53;;;9.37;;
37645;SDS011;23489;49.600;6.138;2023-01-20T12:11:51;13.95;;;9.05;;
37645;SDS011;23489;49.600;6.138;2023-01-20T12:22:26;15.60;;;8.50;;
37645;SDS011;23489;49.600;6.138;2023-01-20T12:25:11;17.02;;;9.90;;
37645;SDS011;23489;49.600;6.138;2023-01-20T12:27:51;14.02;;;8.43;;
37645;SDS011;23489;49.600;6.138;2023-01-20T12:30:26;14.00;;;8.67;;
37645;SDS011;23489;49.600;6.138;2023-01-20T12:32:53;19.35;;;10.50;;
37645;SDS011;23489;49.600;6.138;2023-01-20T12:35:19;22.58;;;14.45;;
37645;SDS011;23489;49.600;6.138;2023-01-20T12:38:10;19.20;;;10.87;;
37645;SDS011;23489;49.600;6.138;2023-01-20T12:40:50;18.25;;;9.68;;
37645;SDS011;23489;49.600;6.138;2023-01-20T12:49:03;18.10;;;8.80;;
37645;SDS011;23489;49.600;6.138;2023-01-20T12:55:02;16.80;;;8.77;;
37645;SDS011;23489;49.600;6.138;2023-01-20T13:11:04;11.18;;;7.45;;
37645;SDS011;23489;49.600;6.138;2023-01-20T13:13:35;14.18;;;7.80;;
37645;SDS011;23489;49.600;6.138;2023-01-20T13:16:16;13.02;;;7.85;;
37645;SDS011;23489;49.600;6.138;2023-01-20T13:21:31;12.50;;;7.20;;
37645;SDS011;23489;49.600;6.138;2023-01-20T13:24:01;16.10;;;8.70;;
37645;SDS011;23489;49.600;6.138;2023-01-20T13:26:30;14.48;;;8.32;;
37645;SDS011;23489;49.600;6.138;2023-01-20T13:28:57;13.15;;;7.95;;
37645;SDS011;23489;49.600;6.138;2023-01-20T13:42:24;11.77;;;7.53;;
37645;SDS011;23489;49.600;6.138;2023-01-20T13:50:46;14.52;;;7.22;;
37645;SDS011;23489;49.600;6.138;2023-01-20T14:01:00;14.23;;;8.07;;
37645;SDS011;23489;49.600;6.138;2023-01-20T14:03:33;10.85;;;7.20;;
37645;SDS011;23489;49.600;6.138;2023-01-20T14:11:18;12.75;;;9.15;;
37645;SDS011;23489;49.600;6.138;2023-01-20T14:13:52;14.38;;;9.18;;
37645;SDS011;23489;49.600;6.138;2023-01-20T14:16:19;15.77;;;8.93;;
37645;SDS011;23489;49.600;6.138;2023-01-20T14:18:48;12.53;;;8.87;;
37645;SDS011;23489;49.600;6.138;2023-01-20T14:23:45;15.73;;;9.25;;
37645;SDS011;23489;49.600;6.138;2023-01-20T14:26:11;16.33;;;10.30;;
37645;SDS011;23489;49.600;6.138;2023-01-20T14:28:39;21.58;;;13.80;;
37645;SDS011;23489;49.600;6.138;2023-01-20T14:31:11;44.43;;;30.33;;
37645;SDS011;23489;49.600;6.138;2023-01-20T14:33:45;16.87;;;10.07;;
37645;SDS011;23489;49.600;6.138;2023-01-20T14:36:21;17.90;;;11.10;;
37645;SDS011;23489;49.600;6.138;2023-01-20T14:38:50;18.70;;;12.53;;
37645;SDS011;23489;49.600;6.138;2023-01-20T14:41:27;17.35;;;11.05;;
37645;SDS011;23489;49.600;6.138;2023-01-20T14:43:55;17.40;;;10.47;;
37645;SDS011;23489;49.600;6.138;2023-01-20T14:46:22;16.27;;;9.40;;
37645;SDS011;23489;49.600;6.138;2023-01-20T14:48:49;16.43;;;9.73;;
37645;SDS011;23489;49.600;6.138;2023-01-20T14:51:15;18.13;;;9.10;;
37645;SDS011;23489;49.600;6.138;2023-01-20T14:53:41;12.93;;;8.10;;
37645;SDS011;23489;49.600;6.138;2023-01-20T14:56:12;17.33;;;9.77;;
37645;SDS011;23489;49.600;6.138;2023-01-20T14:58:48;18.23;;;10.37;;
37645;SDS011;23489;49.600;6.138;2023-01-20T15:01:19;14.83;;;8.27;;
37645;SDS011;23489;49.600;6.138;2023-01-20T15:03:53;14.83;;;8.90;;
37645;SDS011;23489;49.600;6.138;2023-01-20T15:06:23;15.17;;;8.27;;
37645;SDS011;23489;49.600;6.138;2023-01-20T15:08:50;13.43;;;8.60;;
37645;SDS011;23489;49.600;6.138;2023-01-20T15:11:24;15.10;;;8.07;;
37645;SDS011;23489;49.600;6.138;2023-01-20T15:16:28;13.43;;;8.35;;
37645;SDS011;23489;49.600;6.138;2023-01-20T15:21:40;14.33;;;8.77;;
37645;SDS011;23489;49.600;6.138;2023-01-20T15:24:11;15.33;;;8.13;;
37645;SDS011;23489;49.600;6.138;2023-01-20T15:26:42;12.93;;;7.25;;
37645;SDS011;23489;49.600;6.138;2023-01-20T15:29:28;16.65;;;8.00;;
37645;SDS011;23489;49.600;6.138;2023-01-20T15:31:56;13.10;;;7.80;;
37645;SDS011;23489;49.600;6.138;2023-01-20T15:34:24;15.50;;;8.90;;
37645;SDS011;23489;49.600;6.138;2023-01-20T15:36:51;16.43;;;8.93;;
37645;SDS011;23489;49.600;6.138;2023-01-20T15:39:18;16.17;;;8.43;;
37645;SDS011;23489;49.600;6.138;2023-01-20T15:41:45;11.45;;;7.25;;
37645;SDS011;23489;49.600;6.138;2023-01-20T15:44:12;16.27;;;7.88;;
37645;SDS011;23489;49.600;6.138;2023-01-20T15:46:39;18.08;;;8.48;;
37645;SDS011;23489;49.600;6.138;2023-01-20T15:49:11;16.52;;;7.78;;
37645;SDS011;23489;49.600;6.138;2023-01-20T15:51:38;16.13;;;8.57;;
37645;SDS011;23489;49.600;6.138;2023-01-20T15:54:04;14.63;;;7.13;;
37645;SDS011;23489;49.600;6.138;2023-01-20T15:56:34;16.13;;;8.93;;
37645;SDS011;23489;49.600;6.138;2023-01-20T15:59:02;20.42;;;9.18;;
37645;SDS011;23489;49.600;6.138;2023-01-20T16:01:34;17.15;;;8.55;;
37645;SDS011;23489;49.600;6.138;2023-01-20T16:03:59;14.68;;;7.47;;
37645;SDS011;23489;49.600;6.138;2023-01-20T16:06:26;18.37;;;8.40;;
37645;SDS011;23489;49.600;6.138;2023-01-20T16:08:55;13.60;;;7.70;;
37645;SDS011;23489;49.600;6.138;2023-01-20T16:11:21;18.40;;;9.47;;
37645;SDS011;23489;49.600;6.138;2023-01-20T16:13:47;19.77;;;9.35;;
37645;SDS011;23489;49.600;6.138;2023-01-20T16:16:14;18.48;;;10.15;;
37645;SDS011;23489;49.600;6.138;2023-01-20T16:18:41;17.63;;;9.57;;
37645;SDS011;23489;49.600;6.138;2023-01-20T16:21:11;16.27;;;8.43;;
37645;SDS011;23489;49.600;6.138;2023-01-20T16:23:38;18.08;;;8.30;;
37645;SDS011;23489;49.600;6.138;2023-01-20T16:26:15;17.50;;;8.70;;
37645;SDS011;23489;49.600;6.138;2023-01-20T16:28:51;18.58;;;8.48;;
37645;SDS011;23489;49.600;6.138;2023-01-20T16:31:18;15.85;;;8.65;;
37645;SDS011;23489;49.600;6.138;2023-01-20T16:33:45;20.17;;;9.40;;
37645;SDS011;23489;49.600;6.138;2023-01-20T16:36:11;21.55;;;10.75;;
37645;SDS011;23489;49.600;6.138;2023-01-20T16:38:39;20.17;;;10.05;;